sensor_id;sensor_type;location;lat;lon;timestamp;P1;durP1;ratioP1;P2;durP2;ratioP2
29548;SDS011;16487;53.094;8.800;2022-12-18T00:01:20;38.93;;;23.27;;
29548;SDS011;16487;53.094;8.800;2022-12-18T00:03:48;28.07;;;16.10;;
29548;SDS011;16487;53.094;8.800;2022-12-18T00:06:16;40.60;;;24.80;;
29548;SDS011;16487;53.094;8.800;2022-12-18T00:08:44;35.30;;;23.30;;
29548;SDS011;16487;53.094;8.800;2022-12-18T00:11:13;40.80;;;24.33;;
29548;SDS011;16487;53.094;8.800;2022-12-18T00:13:43;32.43;;;21.10;;
29548;SDS011;16487;53.094;8.800;2022-12-18T00:16:11;40.23;;;22.20;;
29548;SDS011;16487;53.094;8.800;2022-12-18T00:18:40;32.17;;;21.23;;
29548;SDS011;16487;53.094;8.800;2022-12-18T00:21:09;40.00;;;22.23;;
29548;SDS011;16487;53.094;8.800;2022-12-18T00:23:38;24.70;;;18.27;;
29548;SDS011;16487;53.094;8.800;2022-12-18T00:26:09;31.77;;;19.70;;
29548;SDS011;16487;53.094;8.800;2022-12-18T00:28:42;32.80;;;21.40;;
29548;SDS011;16487;53.094;8.800;2022-12-18T00:31:11;37.30;;;21.60;;
29548;SDS011;16487;53.094;8.800;2022-12-18T00:33:40;36.00;;;21.90;;
29548;SDS011;16487;53.094;8.800;2022-12-18T00:36:09;36.23;;;20.77;;
29548;SDS011;16487;53.094;8.800;2022-12-18T00:38:39;29.60;;;20.00;;
29548;SDS011;16487;53.094;8.800;2022-12-18T00:41:07;35.30;;;22.17;;
29548;SDS011;16487;53.094;8.800;2022-12-18T00:43:35;28.50;;;16.70;;
29548;SDS011;16487;53.094;8.800;2022-12-18T00:46:05;32.53;;;18.77;;
29548;SDS011;16487;53.094;8.800;2022-12-18T00:48:32;36.57;;;19.20;;
29548;SDS011;16487;53.094;8.800;2022-12-18T00:51:00;21.50;;;13.30;;
29548;SDS011;16487;53.094;8.800;2022-12-18T00:53:27;25.87;;;19.70;;
29548;SDS011;16487;53.094;8.800;2022-12-18T00:55:55;27.87;;;19.43;;
29548;SDS011;16487;53.094;8.800;2022-12-18T00:58:23;35.67;;;20.47;;
29548;SDS011;16487;53.094;8.800;2022-12-18T01:00:50;33.67;;;19.30;;
29548;SDS011;16487;53.094;8.800;2022-12-18T01:03:19;29.40;;;16.10;;
29548;SDS011;16487;53.094;8.800;2022-12-18T01:05:46;34.07;;;21.30;;
29548;SDS011;16487;53.094;8.800;2022-12-18T01:08:13;35.57;;;20.47;;
29548;SDS011;16487;53.094;8.800;2022-12-18T01:10:43;37.60;;;21.60;;
29548;SDS011;16487;53.094;8.800;2022-12-18T01:13:11;35.83;;;20.87;;
29548;SDS011;16487;53.094;8.800;2022-12-18T01:15:38;34.00;;;21.40;;
29548;SDS011;16487;53.094;8.800;2022-12-18T01:18:09;41.70;;;22.35;;
29548;SDS011;16487;53.094;8.800;2022-12-18T01:20:38;40.43;;;20.10;;
29548;SDS011;16487;53.094;8.800;2022-12-18T01:23:06;33.87;;;20.63;;
29548;SDS011;16487;53.094;8.800;2022-12-18T01:25:35;29.03;;;20.20;;
29548;SDS011;16487;53.094;8.800;2022-12-18T01:28:03;33.20;;;18.73;;
29548;SDS011;16487;53.094;8.800;2022-12-18T01:30:31;32.23;;;19.53;;
29548;SDS011;16487;53.094;8.800;2022-12-18T01:32:58;28.57;;;19.53;;
29548;SDS011;16487;53.094;8.800;2022-12-18T01:35:26;28.60;;;17.60;;
29548;SDS011;16487;53.094;8.800;2022-12-18T01:37:55;28.60;;;16.90;;
29548;SDS011;16487;53.094;8.800;2022-12-18T01:40:22;27.20;;;16.90;;
29548;SDS011;16487;53.094;8.800;2022-12-18T01:42:51;28.93;;;17.83;;
29548;SDS011;16487;53.094;8.800;2022-12-18T01:45:23;31.40;;;18.77;;
29548;SDS011;16487;53.094;8.800;2022-12-18T01:47:53;24.77;;;19.00;;
29548;SDS011;16487;53.094;8.800;2022-12-18T01:50:23;25.03;;;17.23;;
29548;SDS011;16487;53.094;8.800;2022-12-18T01:52:55;23.30;;;17.40;;
29548;SDS011;16487;53.094;8.800;2022-12-18T01:55:25;32.13;;;19.27;;
29548;SDS011;16487;53.094;8.800;2022-12-18T01:57:56;28.50;;;17.63;;
29548;SDS011;16487;53.094;8.800;2022-12-18T02:00:26;35.43;;;19.97;;
29548;SDS011;16487;53.094;8.800;2022-12-18T02:02:54;30.83;;;16.10;;
29548;SDS011;16487;53.094;8.800;2022-12-18T02:05:24;28.90;;;18.30;;
29548;SDS011;16487;53.094;8.800;2022-12-18T02:08:01;27.03;;;17.50;;
29548;SDS011;16487;53.094;8.800;2022-12-18T02:10:37;29.87;;;18.73;;
29548;SDS011;16487;53.094;8.800;2022-12-18T02:13:14;32.73;;;18.37;;
29548;SDS011;16487;53.094;8.800;2022-12-18T02:15:49;26.37;;;15.07;;
29548;SDS011;16487;53.094;8.800;2022-12-18T02:18:23;36.40;;;21.00;;
29548;SDS011;16487;53.094;8.800;2022-12-18T02:20:55;27.10;;;17.57;;
29548;SDS011;16487;53.094;8.800;2022-12-18T02:23:36;31.03;;;18.00;;
29548;SDS011;16487;53.094;8.800;2022-12-18T02:26:17;28.77;;;19.03;;
29548;SDS011;16487;53.094;8.800;2022-12-18T02:28:51;29.70;;;18.90;;
29548;SDS011;16487;53.094;8.800;2022-12-18T02:31:23;32.17;;;20.07;;
29548;SDS011;16487;53.094;8.800;2022-12-18T02:33:54;31.93;;;17.33;;
29548;SDS011;16487;53.094;8.800;2022-12-18T02:36:26;27.50;;;17.30;;
29548;SDS011;16487;53.094;8.800;2022-12-18T02:38:56;29.80;;;16.97;;
29548;SDS011;16487;53.094;8.800;2022-12-18T02:41:26;26.17;;;17.10;;
29548;SDS011;16487;53.094;8.800;2022-12-18T02:43:56;27.30;;;16.60;;
29548;SDS011;16487;53.094;8.800;2022-12-18T02:46:32;27.30;;;15.00;;
29548;SDS011;16487;53.094;8.800;2022-12-18T02:49:12;29.93;;;16.80;;
29548;SDS011;16487;53.094;8.800;2022-12-18T02:51:50;24.07;;;15.80;;
29548;SDS011;16487;53.094;8.800;2022-12-18T02:54:22;24.20;;;16.20;;
29548;SDS011;16487;53.094;8.800;2022-12-18T02:57:03;26.80;;;14.73;;
29548;SDS011;16487;53.094;8.800;2022-12-18T02:59:38;28.80;;;15.93;;
29548;SDS011;16487;53.094;8.800;2022-12-18T03:02:16;26.37;;;15.60;;
29548;SDS011;16487;53.094;8.800;2022-12-18T03:04:51;25.87;;;15.90;;
29548;SDS011;16487;53.094;8.800;2022-12-18T03:07:34;21.03;;;13.97;;
29548;SDS011;16487;53.094;8.800;2022-12-18T03:10:09;24.43;;;15.90;;
29548;SDS011;16487;53.094;8.800;2022-12-18T03:12:43;22.60;;;14.63;;
29548;SDS011;16487;53.094;8.800;2022-12-18T03:15:15;21.60;;;13.50;;
29548;SDS011;16487;53.094;8.800;2022-12-18T03:17:50;23.83;;;13.10;;
29548;SDS011;16487;53.094;8.800;2022-12-18T03:20:25;16.50;;;10.97;;
29548;SDS011;16487;53.094;8.800;2022-12-18T03:22:59;19.27;;;11.87;;
29548;SDS011;16487;53.094;8.800;2022-12-18T03:25:34;18.40;;;13.20;;
29548;SDS011;16487;53.094;8.800;2022-12-18T03:28:07;23.30;;;13.23;;
29548;SDS011;16487;53.094;8.800;2022-12-18T03:30:40;21.70;;;13.40;;
29548;SDS011;16487;53.094;8.800;2022-12-18T03:33:12;20.50;;;13.00;;
29548;SDS011;16487;53.094;8.800;2022-12-18T03:35:45;18.57;;;12.47;;
29548;SDS011;16487;53.094;8.800;2022-12-18T03:38:13;19.00;;;11.40;;
29548;SDS011;16487;53.094;8.800;2022-12-18T03:40:48;19.30;;;11.40;;
29548;SDS011;16487;53.094;8.800;2022-12-18T03:43:29;19.13;;;10.37;;
29548;SDS011;16487;53.094;8.800;2022-12-18T03:46:08;18.43;;;12.70;;
29548;SDS011;16487;53.094;8.800;2022-12-18T03:48:43;15.80;;;10.47;;
29548;SDS011;16487;53.094;8.800;2022-12-18T03:51:17;21.57;;;12.30;;
29548;SDS011;16487;53.094;8.800;2022-12-18T03:53:53;18.43;;;13.03;;
29548;SDS011;16487;53.094;8.800;2022-12-18T03:56:30;19.58;;;13.77;;
29548;SDS011;16487;53.094;8.800;2022-12-18T03:59:03;22.50;;;13.48;;
29548;SDS011;16487;53.094;8.800;2022-12-18T04:01:33;19.03;;;11.60;;
29548;SDS011;16487;53.094;8.800;2022-12-18T04:04:04;19.20;;;13.10;;
29548;SDS011;16487;53.094;8.800;2022-12-18T04:06:37;16.33;;;12.30;;
29548;SDS011;16487;53.094;8.800;2022-12-18T04:09:07;19.23;;;10.97;;
29548;SDS011;16487;53.094;8.800;2022-12-18T04:11:39;11.83;;;10.47;;
29548;SDS011;16487;53.094;8.800;2022-12-18T04:14:08;18.30;;;11.10;;
29548;SDS011;16487;53.094;8.800;2022-12-18T04:16:41;17.87;;;11.10;;
29548;SDS011;16487;53.094;8.800;2022-12-18T04:19:12;18.97;;;13.73;;
29548;SDS011;16487;53.094;8.800;2022-12-18T04:21:42;13.83;;;11.77;;
29548;SDS011;16487;53.094;8.800;2022-12-18T04:24:10;15.40;;;10.90;;
29548;SDS011;16487;53.094;8.800;2022-12-18T04:26:43;15.07;;;9.60;;
29548;SDS011;16487;53.094;8.800;2022-12-18T04:29:18;18.63;;;12.37;;
29548;SDS011;16487;53.094;8.800;2022-12-18T04:31:46;17.20;;;12.30;;
29548;SDS011;16487;53.094;8.800;2022-12-18T04:34:15;17.27;;;11.20;;
29548;SDS011;16487;53.094;8.800;2022-12-18T04:36:48;16.07;;;11.53;;
29548;SDS011;16487;53.094;8.800;2022-12-18T04:39:16;21.40;;;13.40;;
29548;SDS011;16487;53.094;8.800;2022-12-18T04:41:44;17.83;;;11.63;;
29548;SDS011;16487;53.094;8.800;2022-12-18T04:44:12;19.13;;;10.30;;
29548;SDS011;16487;53.094;8.800;2022-12-18T04:46:41;19.23;;;11.53;;
29548;SDS011;16487;53.094;8.800;2022-12-18T04:49:09;21.30;;;12.00;;
29548;SDS011;16487;53.094;8.800;2022-12-18T04:51:36;15.33;;;9.77;;
29548;SDS011;16487;53.094;8.800;2022-12-18T04:54:03;16.83;;;10.90;;
29548;SDS011;16487;53.094;8.800;2022-12-18T04:56:31;12.60;;;8.53;;
29548;SDS011;16487;53.094;8.800;2022-12-18T04:58:59;16.33;;;10.80;;
29548;SDS011;16487;53.094;8.800;2022-12-18T05:01:26;12.50;;;6.40;;
29548;SDS011;16487;53.094;8.800;2022-12-18T05:04:02;17.60;;;10.27;;
29548;SDS011;16487;53.094;8.800;2022-12-18T05:06:30;18.63;;;10.17;;
29548;SDS011;16487;53.094;8.800;2022-12-18T05:08:57;11.47;;;6.27;;
29548;SDS011;16487;53.094;8.800;2022-12-18T05:11:24;12.77;;;9.90;;
29548;SDS011;16487;53.094;8.800;2022-12-18T05:13:52;15.37;;;9.23;;
29548;SDS011;16487;53.094;8.800;2022-12-18T05:16:22;13.87;;;9.97;;
29548;SDS011;16487;53.094;8.800;2022-12-18T05:18:49;17.30;;;10.77;;
29548;SDS011;16487;53.094;8.800;2022-12-18T05:21:18;11.23;;;6.60;;
29548;SDS011;16487;53.094;8.800;2022-12-18T05:23:45;16.83;;;10.07;;
29548;SDS011;16487;53.094;8.800;2022-12-18T05:26:14;12.70;;;8.57;;
29548;SDS011;16487;53.094;8.800;2022-12-18T05:28:44;14.40;;;9.00;;
29548;SDS011;16487;53.094;8.800;2022-12-18T05:31:11;15.57;;;10.33;;
29548;SDS011;16487;53.094;8.800;2022-12-18T05:33:39;20.20;;;9.47;;
29548;SDS011;16487;53.094;8.800;2022-12-18T05:36:08;14.77;;;9.67;;
29548;SDS011;16487;53.094;8.800;2022-12-18T05:38:37;12.97;;;9.77;;
29548;SDS011;16487;53.094;8.800;2022-12-18T05:41:06;20.20;;;11.30;;
29548;SDS011;16487;53.094;8.800;2022-12-18T05:43:34;16.00;;;10.70;;
29548;SDS011;16487;53.094;8.800;2022-12-18T05:46:04;14.47;;;10.20;;
29548;SDS011;16487;53.094;8.800;2022-12-18T05:48:32;18.83;;;9.60;;
29548;SDS011;16487;53.094;8.800;2022-12-18T05:51:03;13.03;;;9.97;;
29548;SDS011;16487;53.094;8.800;2022-12-18T05:53:31;16.07;;;10.80;;
29548;SDS011;16487;53.094;8.800;2022-12-18T05:56:01;14.83;;;8.63;;
29548;SDS011;16487;53.094;8.800;2022-12-18T05:58:29;13.03;;;9.80;;
29548;SDS011;16487;53.094;8.800;2022-12-18T06:00:57;15.50;;;10.00;;
29548;SDS011;16487;53.094;8.800;2022-12-18T06:03:33;13.23;;;8.80;;
29548;SDS011;16487;53.094;8.800;2022-12-18T06:06:00;20.30;;;9.67;;
29548;SDS011;16487;53.094;8.800;2022-12-18T06:08:28;16.93;;;7.77;;
29548;SDS011;16487;53.094;8.800;2022-12-18T06:10:55;16.87;;;9.97;;
29548;SDS011;16487;53.094;8.800;2022-12-18T06:13:24;19.50;;;11.23;;
29548;SDS011;16487;53.094;8.800;2022-12-18T06:15:51;13.47;;;8.87;;
29548;SDS011;16487;53.094;8.800;2022-12-18T06:18:18;12.40;;;9.37;;
29548;SDS011;16487;53.094;8.800;2022-12-18T06:20:53;15.83;;;10.47;;
29548;SDS011;16487;53.094;8.800;2022-12-18T06:23:21;18.17;;;8.90;;
29548;SDS011;16487;53.094;8.800;2022-12-18T06:25:49;14.07;;;8.63;;
29548;SDS011;16487;53.094;8.800;2022-12-18T06:28:16;12.60;;;9.47;;
29548;SDS011;16487;53.094;8.800;2022-12-18T06:30:45;17.03;;;9.70;;
29548;SDS011;16487;53.094;8.800;2022-12-18T06:33:13;13.10;;;7.17;;
29548;SDS011;16487;53.094;8.800;2022-12-18T06:35:41;12.70;;;7.47;;
29548;SDS011;16487;53.094;8.800;2022-12-18T06:38:08;10.70;;;7.03;;
29548;SDS011;16487;53.094;8.800;2022-12-18T06:40:36;14.93;;;9.77;;
29548;SDS011;16487;53.094;8.800;2022-12-18T06:43:04;11.20;;;8.53;;
29548;SDS011;16487;53.094;8.800;2022-12-18T06:45:32;14.63;;;9.33;;
29548;SDS011;16487;53.094;8.800;2022-12-18T06:48:00;14.60;;;8.67;;
29548;SDS011;16487;53.094;8.800;2022-12-18T06:50:28;12.43;;;9.23;;
29548;SDS011;16487;53.094;8.800;2022-12-18T06:52:56;16.57;;;9.40;;
29548;SDS011;16487;53.094;8.800;2022-12-18T06:55:23;12.63;;;9.33;;
29548;SDS011;16487;53.094;8.800;2022-12-18T06:57:50;16.10;;;10.27;;
29548;SDS011;16487;53.094;8.800;2022-12-18T07:00:18;16.57;;;9.17;;
29548;SDS011;16487;53.094;8.800;2022-12-18T07:02:45;16.53;;;9.50;;
29548;SDS011;16487;53.094;8.800;2022-12-18T07:05:14;11.37;;;7.57;;
29548;SDS011;16487;53.094;8.800;2022-12-18T07:07:41;14.80;;;8.60;;
29548;SDS011;16487;53.094;8.800;2022-12-18T07:10:09;12.37;;;7.97;;
29548;SDS011;16487;53.094;8.800;2022-12-18T07:12:36;13.17;;;8.87;;
29548;SDS011;16487;53.094;8.800;2022-12-18T07:15:04;13.30;;;9.10;;
29548;SDS011;16487;53.094;8.800;2022-12-18T07:17:32;13.83;;;9.80;;
29548;SDS011;16487;53.094;8.800;2022-12-18T07:19:59;13.00;;;8.83;;
29548;SDS011;16487;53.094;8.800;2022-12-18T07:22:28;16.50;;;10.13;;
29548;SDS011;16487;53.094;8.800;2022-12-18T07:24:55;16.50;;;9.73;;
29548;SDS011;16487;53.094;8.800;2022-12-18T07:27:23;15.43;;;8.40;;
29548;SDS011;16487;53.094;8.800;2022-12-18T07:29:50;17.90;;;11.23;;
29548;SDS011;16487;53.094;8.800;2022-12-18T07:32:17;18.87;;;10.27;;
29548;SDS011;16487;53.094;8.800;2022-12-18T07:34:45;14.13;;;8.80;;
29548;SDS011;16487;53.094;8.800;2022-12-18T07:37:13;12.87;;;9.00;;
29548;SDS011;16487;53.094;8.800;2022-12-18T07:39:42;11.67;;;9.20;;
29548;SDS011;16487;53.094;8.800;2022-12-18T07:42:09;13.73;;;8.80;;
29548;SDS011;16487;53.094;8.800;2022-12-18T07:44:39;17.33;;;9.10;;
29548;SDS011;16487;53.094;8.800;2022-12-18T07:47:06;14.83;;;9.07;;
29548;SDS011;16487;53.094;8.800;2022-12-18T07:49:38;11.30;;;8.20;;
29548;SDS011;16487;53.094;8.800;2022-12-18T07:52:05;16.63;;;11.00;;
29548;SDS011;16487;53.094;8.800;2022-12-18T07:54:32;14.80;;;8.10;;
29548;SDS011;16487;53.094;8.800;2022-12-18T07:57:01;18.80;;;12.13;;
29548;SDS011;16487;53.094;8.800;2022-12-18T07:59:28;12.57;;;10.07;;
29548;SDS011;16487;53.094;8.800;2022-12-18T08:01:55;15.87;;;9.40;;
29548;SDS011;16487;53.094;8.800;2022-12-18T08:04:23;15.33;;;9.90;;
29548;SDS011;16487;53.094;8.800;2022-12-18T08:06:50;15.57;;;9.50;;
29548;SDS011;16487;53.094;8.800;2022-12-18T08:09:17;16.87;;;11.30;;
29548;SDS011;16487;53.094;8.800;2022-12-18T08:11:45;12.13;;;8.90;;
29548;SDS011;16487;53.094;8.800;2022-12-18T08:14:13;16.23;;;9.83;;
29548;SDS011;16487;53.094;8.800;2022-12-18T08:16:41;15.60;;;9.60;;
29548;SDS011;16487;53.094;8.800;2022-12-18T08:19:11;15.20;;;10.90;;
29548;SDS011;16487;53.094;8.800;2022-12-18T08:21:42;15.00;;;9.63;;
29548;SDS011;16487;53.094;8.800;2022-12-18T08:24:09;16.43;;;9.50;;
29548;SDS011;16487;53.094;8.800;2022-12-18T08:26:36;15.50;;;9.57;;
29548;SDS011;16487;53.094;8.800;2022-12-18T08:29:04;16.40;;;9.70;;
29548;SDS011;16487;53.094;8.800;2022-12-18T08:31:32;16.00;;;9.83;;
29548;SDS011;16487;53.094;8.800;2022-12-18T08:34:00;17.50;;;11.00;;
29548;SDS011;16487;53.094;8.800;2022-12-18T08:36:27;16.03;;;10.73;;
29548;SDS011;16487;53.094;8.800;2022-12-18T08:38:55;18.20;;;10.70;;
29548;SDS011;16487;53.094;8.800;2022-12-18T08:41:23;17.23;;;9.00;;
29548;SDS011;16487;53.094;8.800;2022-12-18T08:43:51;15.60;;;9.60;;
29548;SDS011;16487;53.094;8.800;2022-12-18T08:46:18;12.60;;;8.80;;
29548;SDS011;16487;53.094;8.800;2022-12-18T08:48:49;13.17;;;9.67;;
29548;SDS011;16487;53.094;8.800;2022-12-18T08:51:18;12.70;;;7.67;;
29548;SDS011;16487;53.094;8.800;2022-12-18T08:53:46;13.87;;;9.63;;
29548;SDS011;16487;53.094;8.800;2022-12-18T08:56:13;15.27;;;9.67;;
29548;SDS011;16487;53.094;8.800;2022-12-18T08:58:41;13.40;;;9.40;;
29548;SDS011;16487;53.094;8.800;2022-12-18T09:01:10;12.20;;;8.47;;
29548;SDS011;16487;53.094;8.800;2022-12-18T09:03:38;15.07;;;9.80;;
29548;SDS011;16487;53.094;8.800;2022-12-18T09:06:08;15.87;;;9.20;;
29548;SDS011;16487;53.094;8.800;2022-12-18T09:08:35;30.83;;;15.53;;
29548;SDS011;16487;53.094;8.800;2022-12-18T09:11:03;19.70;;;11.03;;
29548;SDS011;16487;53.094;8.800;2022-12-18T09:13:31;39.37;;;18.53;;
29548;SDS011;16487;53.094;8.800;2022-12-18T09:15:58;15.70;;;11.43;;
29548;SDS011;16487;53.094;8.800;2022-12-18T09:18:25;15.70;;;10.33;;
29548;SDS011;16487;53.094;8.800;2022-12-18T09:20:52;16.07;;;12.13;;
29548;SDS011;16487;53.094;8.800;2022-12-18T09:23:21;16.97;;;10.80;;
29548;SDS011;16487;53.094;8.800;2022-12-18T09:25:48;20.80;;;12.53;;
29548;SDS011;16487;53.094;8.800;2022-12-18T09:28:17;12.40;;;10.70;;
29548;SDS011;16487;53.094;8.800;2022-12-18T09:30:45;19.00;;;11.37;;
29548;SDS011;16487;53.094;8.800;2022-12-18T09:33:14;18.23;;;12.77;;
29548;SDS011;16487;53.094;8.800;2022-12-18T09:35:42;19.07;;;11.80;;
29548;SDS011;16487;53.094;8.800;2022-12-18T09:38:12;18.47;;;12.43;;
29548;SDS011;16487;53.094;8.800;2022-12-18T09:40:43;12.83;;;9.17;;
29548;SDS011;16487;53.094;8.800;2022-12-18T09:43:13;18.40;;;12.10;;
29548;SDS011;16487;53.094;8.800;2022-12-18T09:45:45;15.87;;;11.23;;
29548;SDS011;16487;53.094;8.800;2022-12-18T09:48:19;14.67;;;11.90;;
29548;SDS011;16487;53.094;8.800;2022-12-18T09:50:50;16.70;;;10.70;;
29548;SDS011;16487;53.094;8.800;2022-12-18T09:53:22;17.57;;;11.43;;
29548;SDS011;16487;53.094;8.800;2022-12-18T09:55:54;24.33;;;14.40;;
29548;SDS011;16487;53.094;8.800;2022-12-18T09:58:24;21.47;;;13.47;;
29548;SDS011;16487;53.094;8.800;2022-12-18T10:00:56;19.17;;;11.00;;
29548;SDS011;16487;53.094;8.800;2022-12-18T10:03:23;14.73;;;11.03;;
29548;SDS011;16487;53.094;8.800;2022-12-18T10:05:56;17.37;;;11.73;;
29548;SDS011;16487;53.094;8.800;2022-12-18T10:08:32;19.50;;;12.80;;
29548;SDS011;16487;53.094;8.800;2022-12-18T10:11:21;16.37;;;11.53;;
29548;SDS011;16487;53.094;8.800;2022-12-18T10:13:55;19.70;;;11.00;;
29548;SDS011;16487;53.094;8.800;2022-12-18T10:16:29;16.63;;;11.00;;
29548;SDS011;16487;53.094;8.800;2022-12-18T10:19:10;20.80;;;13.03;;
29548;SDS011;16487;53.094;8.800;2022-12-18T10:21:48;17.43;;;10.90;;
29548;SDS011;16487;53.094;8.800;2022-12-18T10:24:24;15.10;;;11.97;;
29548;SDS011;16487;53.094;8.800;2022-12-18T10:27:04;15.10;;;11.10;;
29548;SDS011;16487;53.094;8.800;2022-12-18T10:29:41;19.83;;;11.40;;
29548;SDS011;16487;53.094;8.800;2022-12-18T10:32:10;18.60;;;12.47;;
29548;SDS011;16487;53.094;8.800;2022-12-18T10:34:44;16.40;;;11.53;;
29548;SDS011;16487;53.094;8.800;2022-12-18T10:37:13;15.50;;;10.77;;
29548;SDS011;16487;53.094;8.800;2022-12-18T10:39:43;13.63;;;9.60;;
29548;SDS011;16487;53.094;8.800;2022-12-18T10:42:15;15.40;;;11.47;;
29548;SDS011;16487;53.094;8.800;2022-12-18T10:44:45;14.03;;;11.53;;
29548;SDS011;16487;53.094;8.800;2022-12-18T10:47:14;15.53;;;12.10;;
29548;SDS011;16487;53.094;8.800;2022-12-18T10:49:47;17.33;;;11.30;;
29548;SDS011;16487;53.094;8.800;2022-12-18T10:52:17;15.00;;;10.97;;
29548;SDS011;16487;53.094;8.800;2022-12-18T10:54:49;15.00;;;11.67;;
29548;SDS011;16487;53.094;8.800;2022-12-18T10:57:29;13.00;;;10.30;;
29548;SDS011;16487;53.094;8.800;2022-12-18T11:00:01;16.77;;;11.33;;
29548;SDS011;16487;53.094;8.800;2022-12-18T11:02:47;16.07;;;11.90;;
29548;SDS011;16487;53.094;8.800;2022-12-18T11:05:26;15.83;;;10.67;;
29548;SDS011;16487;53.094;8.800;2022-12-18T11:07:55;14.70;;;10.10;;
29548;SDS011;16487;53.094;8.800;2022-12-18T11:10:25;17.60;;;11.57;;
29548;SDS011;16487;53.094;8.800;2022-12-18T11:12:57;13.30;;;9.60;;
29548;SDS011;16487;53.094;8.800;2022-12-18T11:15:36;14.60;;;11.07;;
29548;SDS011;16487;53.094;8.800;2022-12-18T11:18:14;13.20;;;9.37;;
29548;SDS011;16487;53.094;8.800;2022-12-18T11:20:49;14.43;;;10.70;;
29548;SDS011;16487;53.094;8.800;2022-12-18T11:23:24;15.67;;;10.03;;
29548;SDS011;16487;53.094;8.800;2022-12-18T11:25:53;15.30;;;10.47;;
29548;SDS011;16487;53.094;8.800;2022-12-18T11:28:28;12.70;;;9.97;;
29548;SDS011;16487;53.094;8.800;2022-12-18T11:31:09;14.53;;;9.87;;
29548;SDS011;16487;53.094;8.800;2022-12-18T11:33:46;12.70;;;9.33;;
29548;SDS011;16487;53.094;8.800;2022-12-18T11:36:41;11.57;;;10.37;;
29548;SDS011;16487;53.094;8.800;2022-12-18T11:39:12;17.80;;;10.60;;
29548;SDS011;16487;53.094;8.800;2022-12-18T11:41:47;9.93;;;8.57;;
29548;SDS011;16487;53.094;8.800;2022-12-18T11:44:21;9.67;;;8.23;;
29548;SDS011;16487;53.094;8.800;2022-12-18T11:46:55;13.20;;;9.40;;
29548;SDS011;16487;53.094;8.800;2022-12-18T11:49:28;11.97;;;9.47;;
29548;SDS011;16487;53.094;8.800;2022-12-18T11:52:01;13.73;;;9.50;;
29548;SDS011;16487;53.094;8.800;2022-12-18T11:54:35;11.13;;;9.80;;
29548;SDS011;16487;53.094;8.800;2022-12-18T11:57:05;12.87;;;9.00;;
29548;SDS011;16487;53.094;8.800;2022-12-18T11:59:44;11.70;;;9.40;;
29548;SDS011;16487;53.094;8.800;2022-12-18T12:02:24;13.80;;;9.13;;
29548;SDS011;16487;53.094;8.800;2022-12-18T12:05:11;11.20;;;8.60;;
29548;SDS011;16487;53.094;8.800;2022-12-18T12:07:49;12.23;;;8.93;;
29548;SDS011;16487;53.094;8.800;2022-12-18T12:10:30;10.77;;;8.73;;
29548;SDS011;16487;53.094;8.800;2022-12-18T12:13:13;12.33;;;8.87;;
29548;SDS011;16487;53.094;8.800;2022-12-18T12:15:54;8.93;;;8.03;;
29548;SDS011;16487;53.094;8.800;2022-12-18T12:18:33;14.00;;;9.50;;
29548;SDS011;16487;53.094;8.800;2022-12-18T12:21:09;11.30;;;8.57;;
29548;SDS011;16487;53.094;8.800;2022-12-18T12:23:44;12.77;;;8.67;;
29548;SDS011;16487;53.094;8.800;2022-12-18T12:26:21;12.50;;;8.70;;
29548;SDS011;16487;53.094;8.800;2022-12-18T12:28:59;9.33;;;8.00;;
29548;SDS011;16487;53.094;8.800;2022-12-18T12:31:41;11.40;;;8.13;;
29548;SDS011;16487;53.094;8.800;2022-12-18T12:34:21;10.93;;;8.47;;
29548;SDS011;16487;53.094;8.800;2022-12-18T12:36:57;14.90;;;9.10;;
29548;SDS011;16487;53.094;8.800;2022-12-18T12:39:52;11.20;;;8.20;;
29548;SDS011;16487;53.094;8.800;2022-12-18T12:42:23;13.57;;;8.40;;
29548;SDS011;16487;53.094;8.800;2022-12-18T12:44:57;13.37;;;8.80;;
29548;SDS011;16487;53.094;8.800;2022-12-18T12:47:30;16.63;;;9.70;;
29548;SDS011;16487;53.094;8.800;2022-12-18T12:50:01;13.70;;;9.23;;
29548;SDS011;16487;53.094;8.800;2022-12-18T12:52:53;14.20;;;9.60;;
29548;SDS011;16487;53.094;8.800;2022-12-18T12:55:24;11.27;;;9.10;;
29548;SDS011;16487;53.094;8.800;2022-12-18T12:57:56;15.00;;;10.10;;
29548;SDS011;16487;53.094;8.800;2022-12-18T13:00:30;11.83;;;9.40;;
29548;SDS011;16487;53.094;8.800;2022-12-18T13:03:06;13.93;;;9.20;;
29548;SDS011;16487;53.094;8.800;2022-12-18T13:05:40;12.77;;;9.10;;
29548;SDS011;16487;53.094;8.800;2022-12-18T13:08:21;13.17;;;9.43;;
29548;SDS011;16487;53.094;8.800;2022-12-18T13:10:51;14.97;;;9.50;;
29548;SDS011;16487;53.094;8.800;2022-12-18T13:13:19;14.00;;;11.03;;
29548;SDS011;16487;53.094;8.800;2022-12-18T13:16:07;16.70;;;10.70;;
29548;SDS011;16487;53.094;8.800;2022-12-18T13:18:36;12.20;;;10.50;;
29548;SDS011;16487;53.094;8.800;2022-12-18T13:21:07;15.40;;;11.20;;
29548;SDS011;16487;53.094;8.800;2022-12-18T13:23:46;15.93;;;10.93;;
29548;SDS011;16487;53.094;8.800;2022-12-18T13:26:30;13.67;;;10.60;;
29548;SDS011;16487;53.094;8.800;2022-12-18T13:28:59;15.27;;;9.77;;
29548;SDS011;16487;53.094;8.800;2022-12-18T13:34:29;15.50;;;10.33;;
29548;SDS011;16487;53.094;8.800;2022-12-18T13:39:59;12.17;;;8.23;;
29548;SDS011;16487;53.094;8.800;2022-12-18T13:48:05;12.47;;;8.30;;
29548;SDS011;16487;53.094;8.800;2022-12-18T13:50:52;15.70;;;10.47;;
29548;SDS011;16487;53.094;8.800;2022-12-18T13:53:23;16.60;;;10.40;;
29548;SDS011;16487;53.094;8.800;2022-12-18T13:55:53;16.50;;;11.00;;
29548;SDS011;16487;53.094;8.800;2022-12-18T13:58:21;15.60;;;10.33;;
29548;SDS011;16487;53.094;8.800;2022-12-18T14:00:48;14.43;;;10.47;;
29548;SDS011;16487;53.094;8.800;2022-12-18T14:03:19;15.40;;;8.87;;
29548;SDS011;16487;53.094;8.800;2022-12-18T14:05:58;11.77;;;8.17;;
29548;SDS011;16487;53.094;8.800;2022-12-18T14:08:30;12.10;;;8.70;;
29548;SDS011;16487;53.094;8.800;2022-12-18T14:11:02;13.90;;;9.43;;
29548;SDS011;16487;53.094;8.800;2022-12-18T14:13:33;14.77;;;9.73;;
29548;SDS011;16487;53.094;8.800;2022-12-18T14:16:04;12.47;;;8.80;;
29548;SDS011;16487;53.094;8.800;2022-12-18T14:18:36;15.40;;;10.10;;
29548;SDS011;16487;53.094;8.800;2022-12-18T14:21:18;14.00;;;8.80;;
29548;SDS011;16487;53.094;8.800;2022-12-18T14:23:48;12.87;;;7.97;;
29548;SDS011;16487;53.094;8.800;2022-12-18T14:26:20;10.80;;;7.80;;
29548;SDS011;16487;53.094;8.800;2022-12-18T14:28:51;9.10;;;7.30;;
29548;SDS011;16487;53.094;8.800;2022-12-18T14:31:20;12.03;;;8.20;;
29548;SDS011;16487;53.094;8.800;2022-12-18T14:33:48;10.93;;;8.33;;
29548;SDS011;16487;53.094;8.800;2022-12-18T14:36:18;11.30;;;7.97;;
29548;SDS011;16487;53.094;8.800;2022-12-18T14:38:48;9.30;;;7.90;;
29548;SDS011;16487;53.094;8.800;2022-12-18T14:41:17;12.00;;;7.10;;
29548;SDS011;16487;53.094;8.800;2022-12-18T14:43:46;11.40;;;9.40;;
29548;SDS011;16487;53.094;8.800;2022-12-18T14:46:28;14.03;;;9.23;;
29548;SDS011;16487;53.094;8.800;2022-12-18T14:49:00;13.57;;;8.20;;
29548;SDS011;16487;53.094;8.800;2022-12-18T14:51:31;11.13;;;8.20;;
29548;SDS011;16487;53.094;8.800;2022-12-18T14:54:01;11.50;;;9.33;;
29548;SDS011;16487;53.094;8.800;2022-12-18T14:56:30;12.60;;;8.40;;
29548;SDS011;16487;53.094;8.800;2022-12-18T14:59:00;14.70;;;7.57;;
29548;SDS011;16487;53.094;8.800;2022-12-18T15:01:30;14.70;;;9.87;;